createdAt,value
2018-02-18T00:00:41.458Z,18.95
2018-02-18T00:03:07.712Z,18.96
2018-02-18T00:05:33.914Z,18.98
2018-02-18T00:08:00.104Z,18.96
2018-02-18T00:10:26.421Z,18.96
2018-02-18T00:12:52.718Z,18.96
2018-02-18T00:15:19.019Z,18.93
2018-02-18T00:17:45.222Z,18.91
2018-02-18T00:20:11.398Z,18.89
2018-02-18T00:22:37.592Z,18.88
2018-02-18T00:25:03.831Z,18.89
2018-02-18T00:27:30.024Z,18.88
2018-02-18T00:29:56.448Z,18.86
2018-02-18T00:32:22.746Z,18.84
2018-02-18T00:34:48.929Z,18.80
2018-02-18T00:37:15.171Z,18.78
2018-02-18T00:39:41.413Z,18.79
2018-02-18T00:42:07.639Z,18.76
2018-02-18T00:44:33.905Z,18.78
2018-02-18T00:47:00.367Z,18.80
2018-02-18T00:49:26.583Z,18.80
2018-02-18T00:51:52.803Z,18.76
2018-02-18T00:54:18.968Z,18.73
2018-02-18T00:56:45.236Z,18.72
2018-02-18T00:59:11.442Z,18.73
2018-02-18T01:01:37.653Z,18.67
2018-02-18T01:04:03.862Z,18.62
2018-02-18T01:06:30.101Z,18.57
2018-02-18T01:08:56.259Z,18.52
2018-02-18T01:11:22.768Z,18.50
2018-02-18T01:13:49.206Z,18.51
2018-02-18T01:16:15.714Z,18.48
2018-02-18T01:18:42.144Z,18.46
2018-02-18T01:21:08.317Z,18.44
2018-02-18T01:23:34.795Z,18.44
2018-02-18T01:26:00.952Z,18.48
2018-02-18T01:28:27.131Z,18.49
2018-02-18T01:30:53.348Z,18.53
2018-02-18T01:33:19.543Z,18.51
2018-02-18T01:35:45.722Z,18.48
2018-02-18T01:38:11.961Z,18.46
2018-02-18T01:40:38.369Z,18.44
2018-02-18T01:43:04.546Z,18.45
2018-02-18T01:45:30.761Z,18.47
2018-02-18T01:47:56.927Z,18.49
2018-02-18T01:50:35.758Z,18.54
2018-02-18T01:53:01.925Z,18.58
2018-02-18T01:55:28.178Z,18.58
2018-02-18T01:57:54.332Z,18.56
2018-02-18T02:00:20.847Z,18.51
2018-02-18T02:02:47.086Z,18.48
2018-02-18T02:05:13.272Z,18.46
2018-02-18T02:07:39.458Z,18.50
2018-02-18T02:10:05.650Z,18.51
2018-02-18T02:12:31.852Z,18.49
2018-02-18T02:14:58.077Z,18.47
2018-02-18T02:17:24.246Z,18.46
2018-02-18T02:19:50.425Z,18.48
2018-02-18T02:22:16.886Z,18.53
2018-02-18T02:24:43.053Z,18.51
2018-02-18T02:27:09.289Z,18.47
2018-02-18T02:29:35.458Z,18.44
2018-02-18T02:32:01.919Z,18.46
2018-02-18T02:34:28.169Z,18.48
2018-02-18T02:36:54.470Z,18.48
2018-02-18T02:39:20.684Z,18.47
2018-02-18T02:41:47.103Z,18.47
2018-02-18T02:44:13.288Z,18.45
2018-02-18T02:46:39.498Z,18.49
2018-02-18T02:49:05.905Z,18.51
2018-02-18T02:51:32.136Z,18.48
2018-02-18T02:53:58.330Z,18.45
2018-02-18T02:56:24.512Z,18.40
2018-02-18T02:58:50.731Z,18.37
2018-02-18T03:01:16.901Z,18.29
2018-02-18T03:03:43.315Z,18.32
2018-02-18T03:06:09.557Z,18.30
2018-02-18T03:08:35.723Z,18.29
2018-02-18T03:11:01.890Z,18.29
2018-02-18T03:13:28.170Z,18.31
2018-02-18T03:15:54.331Z,18.36
2018-02-18T03:18:20.494Z,18.33
2018-02-18T03:20:46.703Z,18.34
2018-02-18T03:23:12.931Z,18.34
2018-02-18T03:25:39.089Z,18.35
2018-02-18T03:28:05.251Z,18.41
2018-02-18T03:30:31.501Z,18.42
2018-02-18T03:32:57.668Z,18.42
2018-02-18T03:35:23.840Z,18.47
2018-02-18T03:37:50.070Z,18.55
2018-02-18T03:40:16.257Z,18.58
2018-02-18T03:42:42.476Z,18.57
2018-02-18T03:45:08.664Z,18.47
2018-02-18T03:47:34.874Z,18.39
2018-02-18T03:50:01.279Z,18.36
2018-02-18T03:52:27.465Z,18.34
2018-02-18T03:54:53.673Z,18.33
2018-02-18T03:57:20.074Z,18.38
2018-02-18T03:59:46.245Z,18.36
2018-02-18T04:02:12.455Z,18.34
2018-02-18T04:04:38.643Z,18.31
2018-02-18T04:07:04.817Z,18.35
2018-02-18T04:09:31.043Z,18.31
2018-02-18T04:11:57.300Z,18.25
2018-02-18T04:14:23.577Z,18.29
2018-02-18T04:16:49.784Z,18.26
2018-02-18T04:19:16.206Z,18.20
2018-02-18T04:21:42.433Z,18.20
2018-02-18T04:24:08.614Z,18.20
2018-02-18T04:26:34.787Z,18.19
2018-02-18T04:29:00.996Z,18.16
2018-02-18T04:31:27.392Z,18.15
2018-02-18T04:33:53.568Z,18.14
2018-02-18T04:36:19.845Z,18.16
2018-02-18T04:38:46.031Z,18.21
2018-02-18T04:41:12.215Z,18.25
2018-02-18T04:43:38.459Z,18.29
2018-02-18T04:46:04.629Z,18.29
2018-02-18T04:48:30.793Z,18.26
2018-02-18T04:50:57.042Z,18.24
2018-02-18T04:53:24.523Z,18.29
2018-02-18T04:55:51.016Z,18.32
2018-02-18T04:58:17.550Z,18.29
2018-02-18T05:00:43.750Z,18.26
2018-02-18T05:03:09.945Z,18.26
2018-02-18T05:05:36.237Z,18.24
2018-02-18T05:08:02.466Z,18.23
2018-02-18T05:10:28.611Z,18.23
2018-02-18T05:12:54.882Z,18.21
2018-02-18T05:15:21.191Z,18.18
2018-02-18T05:17:47.378Z,18.15
2018-02-18T05:20:13.615Z,18.12
2018-02-18T05:22:39.775Z,18.13
2018-02-18T05:25:06.870Z,18.11
2018-02-18T05:27:33.085Z,18.12
2018-02-18T05:29:59.262Z,18.09
2018-02-18T05:32:25.432Z,18.13
2018-02-18T05:34:51.635Z,18.18
2018-02-18T05:37:18.125Z,18.21
2018-02-18T05:39:44.378Z,18.15
2018-02-18T05:42:10.540Z,18.11
2018-02-18T05:44:36.698Z,18.14
2018-02-18T05:47:03.240Z,18.14
2018-02-18T05:49:29.466Z,18.14
2018-02-18T05:51:56.007Z,18.13
2018-02-18T05:54:22.191Z,18.13
2018-02-18T05:56:48.663Z,18.17
2018-02-18T05:59:15.096Z,18.17
2018-02-18T06:01:41.293Z,18.14
2018-02-18T06:04:07.564Z,18.15
2018-02-18T06:06:33.726Z,18.12
2018-02-18T06:08:59.888Z,18.04
2018-02-18T06:11:26.092Z,17.99
2018-02-18T06:13:52.259Z,18.02
2018-02-18T06:16:18.556Z,18.08
2018-02-18T06:18:44.736Z,18.10
2018-02-18T06:21:10.914Z,18.14
2018-02-18T06:23:37.480Z,18.17
2018-02-18T06:26:03.691Z,18.17
2018-02-18T06:28:29.980Z,18.17
2018-02-18T06:30:56.472Z,18.11
2018-02-18T06:33:22.638Z,18.05
2018-02-18T06:35:48.851Z,18.00
2018-02-18T06:38:15.368Z,18.06
2018-02-18T06:40:41.567Z,18.08
2018-02-18T06:43:07.808Z,18.09
2018-02-18T06:45:34.045Z,18.10
2018-02-18T06:48:00.222Z,18.13
2018-02-18T06:50:26.406Z,18.19
2018-02-18T06:52:52.591Z,18.29
2018-02-18T06:55:18.785Z,18.32
2018-02-18T06:57:44.971Z,18.31
2018-02-18T07:00:11.173Z,18.32
2018-02-18T07:02:37.358Z,18.24
2018-02-18T07:05:03.873Z,18.20
2018-02-18T07:07:30.051Z,18.19
2018-02-18T07:09:56.235Z,18.13
2018-02-18T07:12:22.424Z,18.00
2018-02-18T07:14:48.598Z,17.94
2018-02-18T07:17:14.820Z,17.89
2018-02-18T07:19:40.994Z,17.84
2018-02-18T07:22:07.244Z,17.77
2018-02-18T07:24:33.435Z,17.78
2018-02-18T07:26:59.661Z,17.81
2018-02-18T07:29:25.893Z,17.88
2018-02-18T07:31:52.187Z,17.98
2018-02-18T07:34:18.418Z,18.10
2018-02-18T07:36:44.630Z,18.12
2018-02-18T07:39:10.816Z,18.01
2018-02-18T07:41:37.291Z,18.06
2018-02-18T07:44:03.829Z,18.14
2018-02-18T07:46:30.072Z,18.28
2018-02-18T07:48:56.236Z,18.36
2018-02-18T07:51:22.408Z,18.40
2018-02-18T07:53:48.606Z,18.46
2018-02-18T07:56:14.825Z,18.51
2018-02-18T07:58:40.992Z,18.53
2018-02-18T08:01:07.167Z,18.60
2018-02-18T08:03:33.375Z,18.67
2018-02-18T08:05:59.528Z,18.72
2018-02-18T08:08:25.748Z,18.72
2018-02-18T08:10:51.927Z,18.73
2018-02-18T08:13:18.363Z,18.75
2018-02-18T08:15:45.631Z,18.71
2018-02-18T08:18:11.847Z,18.62
2018-02-18T08:20:38.035Z,18.55
2018-02-18T08:23:04.221Z,18.55
2018-02-18T08:25:30.391Z,18.61
2018-02-18T08:27:56.644Z,18.58
2018-02-18T08:30:22.818Z,18.61
2018-02-18T08:32:49.039Z,18.62
2018-02-18T08:35:15.220Z,18.60
2018-02-18T08:37:41.669Z,18.66
2018-02-18T08:40:08.205Z,18.68
2018-02-18T08:42:34.383Z,18.74
2018-02-18T08:45:00.580Z,18.76
2018-02-18T08:47:27.199Z,18.75
2018-02-18T08:49:53.427Z,18.80
2018-02-18T08:52:19.589Z,18.84
2018-02-18T08:54:45.783Z,18.87
2018-02-18T08:57:12.027Z,18.89
2018-02-18T08:59:38.302Z,18.90
2018-02-18T09:02:04.486Z,18.95
2018-02-18T09:04:30.726Z,18.96
2018-02-18T09:06:56.920Z,18.95
2018-02-18T09:09:23.104Z,18.97
2018-02-18T09:11:49.346Z,19.00
2018-02-18T09:14:15.505Z,19.04
2018-02-18T09:16:41.679Z,19.08
2018-02-18T09:19:07.937Z,19.07
2018-02-18T09:21:34.390Z,19.02
2018-02-18T09:24:00.604Z,19.09
2018-02-18T09:26:26.842Z,19.17
2018-02-18T09:28:53.040Z,19.20
2018-02-18T09:31:19.210Z,19.18
2018-02-18T09:33:45.415Z,19.18
2018-02-18T09:36:11.958Z,19.24
2018-02-18T09:38:38.482Z,19.21
2018-02-18T09:41:04.742Z,19.21
2018-02-18T09:43:30.934Z,19.20
2018-02-18T09:45:57.111Z,19.20
2018-02-18T09:48:23.308Z,19.18
2018-02-18T09:50:49.533Z,19.15
2018-02-18T09:53:15.723Z,19.17
2018-02-18T09:55:42.198Z,19.15
2018-02-18T09:58:08.440Z,19.17
2018-02-18T10:00:34.964Z,19.18
2018-02-18T10:03:01.156Z,19.17
2018-02-18T10:05:27.366Z,19.17
2018-02-18T10:07:53.751Z,19.18
2018-02-18T10:10:19.969Z,19.21
2018-02-18T10:12:46.174Z,19.22
2018-02-18T10:15:12.367Z,19.27
2018-02-18T10:17:38.680Z,19.30
2018-02-18T10:20:04.944Z,19.32
2018-02-18T10:22:31.108Z,19.36
2018-02-18T10:24:57.659Z,19.40
2018-02-18T10:27:23.887Z,19.42
2018-02-18T10:29:50.060Z,19.43
2018-02-18T10:32:16.497Z,19.44
2018-02-18T10:34:42.742Z,19.44
2018-02-18T10:37:08.912Z,19.47
2018-02-18T10:39:35.099Z,19.49
2018-02-18T10:42:01.384Z,19.53
2018-02-18T10:44:27.584Z,19.56
2018-02-18T10:46:53.814Z,19.55
2018-02-18T10:49:20.343Z,19.55
2018-02-18T10:51:46.551Z,19.53
2018-02-18T10:54:13.011Z,19.52
2018-02-18T10:56:39.171Z,19.55
2018-02-18T10:59:05.370Z,19.55
2018-02-18T11:01:31.866Z,19.53
2018-02-18T11:03:58.043Z,19.57
2018-02-18T11:06:24.219Z,19.54
2018-02-18T11:08:50.441Z,19.57
2018-02-18T11:11:16.912Z,19.58
2018-02-18T11:13:43.089Z,19.57
2018-02-18T11:16:09.364Z,19.62
2018-02-18T11:18:35.901Z,19.68
2018-02-18T11:21:02.089Z,19.73
2018-02-18T11:23:28.341Z,19.84
2018-02-18T11:25:54.534Z,19.86
2018-02-18T11:28:20.731Z,19.90
2018-02-18T11:30:46.940Z,19.92
2018-02-18T11:33:13.145Z,19.92
2018-02-18T11:35:39.436Z,19.89
2018-02-18T11:38:05.599Z,19.86
2018-02-18T11:40:31.803Z,19.90
2018-02-18T11:42:58.070Z,19.92
2018-02-18T11:45:24.386Z,19.94
2018-02-18T11:47:50.662Z,19.96
2018-02-18T11:50:16.885Z,19.98
2018-02-18T11:52:43.148Z,20.01
2018-02-18T11:55:09.477Z,20.03
2018-02-18T11:57:35.682Z,20.02
2018-02-18T12:00:02.194Z,20.04
2018-02-18T12:02:28.379Z,20.06
2018-02-18T12:04:54.850Z,20.10
2018-02-18T12:07:21.056Z,20.13
2018-02-18T12:09:47.269Z,20.13
2018-02-18T12:12:13.484Z,20.16
2018-02-18T12:14:39.711Z,20.17
2018-02-18T12:17:05.929Z,20.22
2018-02-18T12:19:32.182Z,20.20
2018-02-18T12:21:58.440Z,20.20
2018-02-18T12:24:24.632Z,20.15
2018-02-18T12:26:50.869Z,20.18
2018-02-18T12:29:17.231Z,20.23
2018-02-18T12:31:43.418Z,20.25
2018-02-18T12:34:09.704Z,20.30
2018-02-18T12:36:35.917Z,20.31
2018-02-18T12:39:02.165Z,20.33
2018-02-18T12:41:28.356Z,20.42
2018-02-18T12:43:54.541Z,20.48
2018-02-18T12:46:20.760Z,20.50
2018-02-18T12:48:46.953Z,20.53
2018-02-18T12:51:15.651Z,20.50
2018-02-18T12:53:42.180Z,20.45
2018-02-18T12:56:08.355Z,20.42
2018-02-18T12:58:34.578Z,20.42
2018-02-18T13:01:00.761Z,20.40
2018-02-18T13:03:26.943Z,20.40
2018-02-18T13:05:53.420Z,20.37
2018-02-18T13:08:19.678Z,20.34
2018-02-18T13:10:45.848Z,20.31
2018-02-18T13:13:12.035Z,20.29
2018-02-18T13:15:38.228Z,20.28
2018-02-18T13:18:04.401Z,20.24
2018-02-18T13:20:30.994Z,20.25
2018-02-18T13:22:57.528Z,20.29
2018-02-18T13:25:23.963Z,20.27
2018-02-18T13:27:50.167Z,20.26
2018-02-18T13:30:16.348Z,20.27
2018-02-18T13:32:42.629Z,20.32
2018-02-18T13:35:09.059Z,20.37
2018-02-18T13:37:35.279Z,20.42
2018-02-18T13:40:01.539Z,20.51
2018-02-18T13:42:28.073Z,20.59
2018-02-18T13:44:54.249Z,20.67
2018-02-18T13:47:20.548Z,20.75
2018-02-18T13:49:46.723Z,20.82
2018-02-18T13:52:12.956Z,20.85
2018-02-18T13:54:39.116Z,20.86
2018-02-18T13:57:05.305Z,20.88
2018-02-18T13:59:31.871Z,20.88
2018-02-18T14:01:58.060Z,20.90
2018-02-18T14:04:24.293Z,20.84
2018-02-18T14:06:50.456Z,20.80
2018-02-18T14:09:16.634Z,20.75
2018-02-18T14:11:42.895Z,20.72
2018-02-18T14:14:09.078Z,20.71
2018-02-18T14:16:35.263Z,20.70
2018-02-18T14:19:01.476Z,20.73
2018-02-18T14:21:27.675Z,20.82
2018-02-18T14:23:53.907Z,20.85
2018-02-18T14:26:20.487Z,20.85
2018-02-18T14:28:46.691Z,20.81
2018-02-18T14:31:12.853Z,20.78
2018-02-18T14:33:39.075Z,20.74
2018-02-18T14:36:05.263Z,20.70
2018-02-18T14:38:31.486Z,20.66
2018-02-18T14:40:57.666Z,20.62
2018-02-18T14:43:36.104Z,20.61
2018-02-18T14:46:14.664Z,20.60
2018-02-18T14:48:53.150Z,20.66
2018-02-18T14:51:31.592Z,20.72
2018-02-18T14:54:10.437Z,20.83
2018-02-18T14:56:48.805Z,21.09
2018-02-18T14:59:14.992Z,21.41
2018-02-18T15:01:41.226Z,21.64
2018-02-18T15:04:07.536Z,21.55
2018-02-18T15:06:33.711Z,21.40
2018-02-18T15:08:59.933Z,21.23
2018-02-18T15:11:26.113Z,21.08
2018-02-18T15:13:52.347Z,20.92
2018-02-18T15:16:18.622Z,20.76
2018-02-18T15:18:44.820Z,20.69
2018-02-18T15:21:11.064Z,20.64
2018-02-18T15:23:37.244Z,20.63
2018-02-18T15:26:03.559Z,20.65
2018-02-18T15:28:29.823Z,20.69
2018-02-18T15:30:56.003Z,20.82
2018-02-18T15:33:22.187Z,20.94
2018-02-18T15:35:48.398Z,20.97
2018-02-18T15:38:14.935Z,20.96
2018-02-18T15:40:41.465Z,20.93
2018-02-18T15:43:07.701Z,20.87
2018-02-18T15:45:33.935Z,20.77
2018-02-18T15:48:00.159Z,20.79
2018-02-18T15:50:26.382Z,20.76
2018-02-18T15:52:52.571Z,20.76
2018-02-18T15:55:18.845Z,20.75
2018-02-18T15:57:45.032Z,20.67
2018-02-18T16:00:11.230Z,20.60
2018-02-18T16:02:37.515Z,20.53
2018-02-18T16:05:03.711Z,20.47
2018-02-18T16:07:29.891Z,20.41
2018-02-18T16:09:56.138Z,20.35
2018-02-18T16:12:22.315Z,20.30
2018-02-18T16:14:48.765Z,20.27
2018-02-18T16:17:15.000Z,20.25
2018-02-18T16:19:41.194Z,20.23
2018-02-18T16:22:07.393Z,20.22
2018-02-18T16:24:33.887Z,20.16
2018-02-18T16:27:00.083Z,20.14
2018-02-18T16:29:26.250Z,20.08
2018-02-18T16:31:52.525Z,19.96
2018-02-18T16:34:18.709Z,19.86
2018-02-18T16:36:44.909Z,19.78
2018-02-18T16:39:11.130Z,19.73
2018-02-18T16:41:37.412Z,19.64
2018-02-18T16:44:03.913Z,19.62
2018-02-18T16:46:30.454Z,19.60
2018-02-18T16:48:56.725Z,19.63
2018-02-18T16:51:22.994Z,19.65
2018-02-18T16:53:49.151Z,19.65
2018-02-18T16:56:15.340Z,19.63
2018-02-18T16:58:41.526Z,19.61
2018-02-18T17:01:07.782Z,19.60
2018-02-18T17:03:34.254Z,19.57
2018-02-18T17:06:00.446Z,19.53
2018-02-18T17:08:26.657Z,19.50
2018-02-18T17:10:52.829Z,19.47
2018-02-18T17:13:19.038Z,19.44
2018-02-18T17:15:45.260Z,19.42
2018-02-18T17:18:11.828Z,19.38
2018-02-18T17:20:38.082Z,19.39
2018-02-18T17:23:04.340Z,19.42
2018-02-18T17:25:30.531Z,19.46
2018-02-18T17:27:56.733Z,19.47
2018-02-18T17:30:22.952Z,19.46
2018-02-18T17:32:49.148Z,19.37
2018-02-18T17:35:15.370Z,19.40
2018-02-18T17:37:41.557Z,19.42
2018-02-18T17:40:07.725Z,19.38
2018-02-18T17:42:33.943Z,19.37
2018-02-18T17:45:00.436Z,19.38
2018-02-18T17:47:26.971Z,19.37
2018-02-18T17:49:53.186Z,19.37
2018-02-18T17:52:19.391Z,19.38
2018-02-18T17:54:45.551Z,19.36
2018-02-18T17:57:11.768Z,19.34
2018-02-18T17:59:38.217Z,19.31
2018-02-18T18:02:04.435Z,19.27
2018-02-18T18:04:30.647Z,19.30
2018-02-18T18:06:56.878Z,19.32
2018-02-18T18:09:23.080Z,19.33
2018-02-18T18:11:49.306Z,19.35
2018-02-18T18:14:15.587Z,19.33
2018-02-18T18:16:41.761Z,19.31
2018-02-18T18:19:08.030Z,19.33
2018-02-18T18:21:34.368Z,19.30
2018-02-18T18:24:00.548Z,19.28
2018-02-18T18:26:26.802Z,19.26
2018-02-18T18:28:52.980Z,19.26
2018-02-18T18:31:19.486Z,19.27
2018-02-18T18:33:45.698Z,19.28
2018-02-18T18:36:11.883Z,19.24
2018-02-18T18:38:38.092Z,19.26
2018-02-18T18:41:04.260Z,19.19
2018-02-18T18:43:30.447Z,19.14
2018-02-18T18:45:56.642Z,19.09
2018-02-18T18:48:22.855Z,19.06
2018-02-18T18:50:49.414Z,19.04
2018-02-18T18:53:15.845Z,19.00
2018-02-18T18:55:42.021Z,19.01
2018-02-18T18:58:08.254Z,18.98
2018-02-18T19:00:34.451Z,18.96
2018-02-18T19:03:00.629Z,18.95
2018-02-18T19:05:26.847Z,18.92
2018-02-18T19:07:53.034Z,18.90
2018-02-18T19:10:19.244Z,18.90
2018-02-18T19:12:45.418Z,18.88
2018-02-18T19:15:11.627Z,18.88
2018-02-18T19:17:37.829Z,18.86
2018-02-18T19:20:03.997Z,18.84
2018-02-18T19:22:30.255Z,18.83
2018-02-18T19:24:56.423Z,18.82
2018-02-18T19:27:22.611Z,18.81
2018-02-18T19:29:48.840Z,18.80
2018-02-18T19:32:15.032Z,18.82
2018-02-18T19:34:41.212Z,18.80
2018-02-18T19:37:07.441Z,18.78
2018-02-18T19:39:33.600Z,18.78
2018-02-18T19:41:59.770Z,18.77
2018-02-18T19:44:26.329Z,18.78
2018-02-18T19:46:52.516Z,18.75
2018-02-18T19:49:18.724Z,18.74
2018-02-18T19:51:44.930Z,18.73
2018-02-18T19:54:11.091Z,18.74
2018-02-18T19:56:37.272Z,18.77
2018-02-18T19:59:03.424Z,18.76
2018-02-18T20:01:29.697Z,18.76
2018-02-18T20:03:55.879Z,18.77
2018-02-18T20:06:22.324Z,18.77
2018-02-18T20:08:48.517Z,18.74
2018-02-18T20:11:14.681Z,18.76
2018-02-18T20:13:40.916Z,18.74
2018-02-18T20:16:07.095Z,18.75
2018-02-18T20:18:33.273Z,18.73
2018-02-18T20:20:59.453Z,18.69
2018-02-18T20:23:25.983Z,18.71
2018-02-18T20:25:52.226Z,18.71
2018-02-18T20:28:18.396Z,18.71
2018-02-18T20:30:44.579Z,18.68
2018-02-18T20:33:10.774Z,18.69
2018-02-18T20:35:36.944Z,18.68
2018-02-18T20:38:03.151Z,18.67
2018-02-18T20:40:29.318Z,18.66
2018-02-18T20:42:55.494Z,18.66
2018-02-18T20:45:21.699Z,18.65
2018-02-18T20:47:47.869Z,18.65
2018-02-18T20:50:14.101Z,18.66
2018-02-18T20:52:43.124Z,18.63
2018-02-18T20:55:09.286Z,18.64
2018-02-18T20:57:41.559Z,18.62
2018-02-18T21:00:07.738Z,18.63
2018-02-18T21:02:33.956Z,18.61
2018-02-18T21:05:00.132Z,18.65
2018-02-18T21:07:26.381Z,18.65
2018-02-18T21:09:52.568Z,18.66
2018-02-18T21:12:18.732Z,18.67
2018-02-18T21:17:16.815Z,18.66
2018-02-18T21:19:42.991Z,18.66
2018-02-18T21:22:09.181Z,18.65
2018-02-18T21:24:35.716Z,18.64
2018-02-18T21:27:02.161Z,18.63
2018-02-18T21:29:28.563Z,18.59
2018-02-18T21:31:54.711Z,18.57
2018-02-18T21:34:20.952Z,18.58
2018-02-18T21:36:47.104Z,18.60
2018-02-18T21:39:13.270Z,18.56
2018-02-18T21:41:39.491Z,18.53
2018-02-18T21:44:05.944Z,18.53
2018-02-18T21:46:32.385Z,18.53
2018-02-18T21:48:58.626Z,18.53
2018-02-18T21:51:24.816Z,18.52
2018-02-18T21:53:51.003Z,18.51
2018-02-18T21:56:17.236Z,18.52
2018-02-18T21:58:43.453Z,18.49
2018-02-18T22:01:09.617Z,18.48
2018-02-18T22:03:36.933Z,18.48
2018-02-18T22:06:03.094Z,18.48
2018-02-18T22:08:29.259Z,18.50
2018-02-18T22:10:55.483Z,18.48
2018-02-18T22:13:21.682Z,18.48
2018-02-18T22:15:47.843Z,18.49
2018-02-18T22:18:14.050Z,18.49
2018-02-18T22:20:40.213Z,18.49
2018-02-18T22:23:06.508Z,18.51
2018-02-18T22:25:32.766Z,18.52
2018-02-18T22:27:59.083Z,18.50
2018-02-18T22:30:25.253Z,18.48
2018-02-18T22:32:51.656Z,18.51
2018-02-18T22:35:17.890Z,18.50
2018-02-18T22:37:44.075Z,18.51
2018-02-18T22:40:10.253Z,18.51
2018-02-18T22:42:36.490Z,18.50
2018-02-18T22:45:02.756Z,18.52
2018-02-18T22:47:28.983Z,18.49
2018-02-18T22:49:55.418Z,18.46
2018-02-18T22:52:21.643Z,18.48
2018-02-18T22:54:47.791Z,18.51
2018-02-18T22:57:13.971Z,18.53
2018-02-18T22:59:40.184Z,18.49
2018-02-18T23:02:06.361Z,18.49
2018-02-18T23:04:32.523Z,18.47
2018-02-18T23:07:04.777Z,18.47
2018-02-18T23:09:30.949Z,18.47
2018-02-18T23:11:57.539Z,18.47
2018-02-18T23:14:23.710Z,18.46
2018-02-18T23:16:49.861Z,18.44
2018-02-18T23:19:16.082Z,18.45
2018-02-18T23:21:42.239Z,18.43
2018-02-18T23:24:08.405Z,18.42
2018-02-18T23:26:34.664Z,18.44
2018-02-18T23:29:01.128Z,18.45
2018-02-18T23:31:27.339Z,18.43
2018-02-18T23:33:53.792Z,18.43
2018-02-18T23:36:19.971Z,18.43
2018-02-18T23:38:46.157Z,18.45
2018-02-18T23:41:12.336Z,18.44
2018-02-18T23:43:38.569Z,18.44
2018-02-18T23:46:05.036Z,18.44
2018-02-18T23:48:31.212Z,18.44
2018-02-18T23:50:57.396Z,18.39
2018-02-18T23:53:23.568Z,18.39
2018-02-18T23:55:49.780Z,18.39
2018-02-18T23:58:15.945Z,18.38
